deformed-offering

Current conditions - KSJC (San Jose International)


Coded METAR: 2017/05/27 01:53 KSJC 270153Z 31013KT 10SM FEW016 SCT045 19/11 A2998 RMK AO2 SLP150 T01890111

Weather Report

Report issued: Sat 27th May at 18:53 PDT

Wind: moderate breeze from the Northwest (310 degrees) at 13 knots (15 mph, 24 kph, Force 4)
Visibility: 10 statute miles
Cloud: a few clouds at 1600 feet
Cloud: scattered at 4500 feet
Temperature: 66F / 19C
Dewpoint: 52F / 11C
Humidity: 60%
Pressure: 29.98 inches of mercury

Current conditions - KNUQ (Moffett NAS)


Coded METAR: 2017/05/27 01:56 KNUQ 270156Z 31007KT 10SM CLR 18/09 A2998 RMK AO2 SLP156 T01830094

Weather Report

Report issued: Sat 27th May at 18:56 PDT

Wind: gentle breeze from the Northwest (310 degrees) at 7 knots (8 mph, 13 kph, Force 3)
Visibility: 10 statute miles
Cloud: Sky clear
Temperature: 64F / 18C
Dewpoint: 48F / 9C
Humidity: 56%
Pressure: 29.98 inches of mercury

Current conditions - KRHV (Reid-Hillview Airport - San Jose)


Coded METAR: 2017/05/27 01:47 KRHV 270147Z 27009KT 10SM SCT050 20/09 A2999

Weather Report

Report issued: Sat 27th May at 18:47 PDT

Wind: gentle breeze from the West (270 degrees) at 9 knots (10 mph, 17 kph, Force 3)
Visibility: 10 statute miles
Cloud: scattered at 5000 feet
Temperature: 68F / 20C
Dewpoint: 48F / 9C
Humidity: 49%
Pressure: 29.99 inches of mercury

Current conditions - KPAO (Palo Alto Airport)


Coded METAR: 2017/05/27 00:47 KPAO 270047Z 24012KT 10SM SCT035 20/11 A2998

Weather Report

Report issued: Sat 27th May at 17:47 PDT

Wind: moderate breeze from West-Southwest (240 degrees) at 12 knots (14 mph, 22 kph, Force 4)
Visibility: 10 statute miles
Cloud: scattered at 3500 feet
Temperature: 68F / 20C
Dewpoint: 52F / 11C
Humidity: 56%
Pressure: 29.98 inches of mercury

 

deformed-offering